KMCF/MCF METAR and TAF weather

Enter ICAO airport designator
Station Type Date Time Source
KMCF METAR 2019/06/18 12:56 UTC NOAA

KMCF 181256Z AUTO 19006KT 10SM M 28/25 A3004 RMK AO2 LTG DSNT NW SLP176 T02760246 FZRANO $


Station Type Date Time Source
KMCF Decoded METAR 2019/06/18 12:56 UTC NOAA

Macdill Air Force Base, Fl., FL, United States (KMCF) 27-51N 082-30W 4M
Jun 18, 2019 - 08:56 AM EDT / 2019.06.18 1256 UTC
Wind: from the S (190 degrees) at 7 MPH (6 KT):0
Visibility: 10 mile(s):0
Weather: Lightning observed
Temperature: 81.7 F (27.6 C)
Dew Point: 76.3 F (24.6 C)
Relative Humidity: 83%
Pressure (altimeter): 30.04 in. Hg (1017 hPa)
ob: KMCF 181256Z AUTO 19006KT 10SM M 28/25 A3004 RMK AO2 LTG DSNT NW SLP176 T02760246 FZRANO
cycle: 13

Station Type Date Time Source
KMCF TAF 2019/06/18 11:22 UTC NOAA

TAF
AMD KMCF 181115Z 1811/1914 17006KT 9999 FEW100 QNH2998INS
TEMPO 1814/1818 25015G25KT 4800 -TSRA OVC015CB
BECMG 1817/1818 25009KT 9999 SCT035 QNH2995INS
BECMG 1902/1903 24006KT 9999 BKN015 QNH2994INS TX31/1819Z TN23/1909Z

Example: see airport list